SBRF

Guararapes - Gilberto Freyre International Airport

Recife, Brazil
TAF SBRF 201000Z 2012/2112 15012KT 8000 BKN020 TX28/2015Z TN24/2108Z PROB30 TEMPO 2012/2013 4000 SHRA SCT012 BKN016 RMK PEA
Issued Valid From Valid To
Jul-20 @ 10:00 UTC
(4 hours ago)
Jul-20 @ 12:00 UTC
(2 hours ago)
Jul-21 @ 12:00 UTC
(in 22 hours)
Jul-20 @ 12:00 to Jul-21 @ 12:00
TAF SBRF 201000Z 2012/2112 15012KT 8000 BKN020 TX28/2015Z TN24/2108Z
Wind Visibility Clouds
150° at 12 knots 7,998 meters
  • Broken at 2,000' AGL
Expired Click to View Jul-20 @ 12:00 to Jul-20 @ 13:00
PROB30 TEMPO 2012/2013 4000 SHRA SCT012 BKN016 RMK PEA
Visibility Clouds Conditions
4,007 meters
  • Scattered at 1,200' AGL
  • Broken at 1,600' AGL
  • Rain
TAF SBRF 201000Z 2012/2112 15012KT 8000 BKN020 TX28/2015Z TN24/2108Z PROB30 TEMPO 2012/2013 4000 SHRA SCT012 BKN016 RMK PEA
Issued Jul-20 @ 10:00 UTC
(4 hours ago)
Valid From Jul-20 @ 12:00 UTC
(2 hours ago)
Valid To Jul-21 @ 12:00 UTC
(in 22 hours)
Jul-20 @ 12:00 - Jul-21 @ 12:00
Wind Visibility
150° at 12 knots 7,998 meters
Clouds
  • Broken at 2,000' AGL
Jul-20 @ 12:00 - Jul-20 @ 13:00
Clouds
  • Scattered at 1,200' AGL
  • Broken at 1,600' AGL
Conditions
  • Rain